sensor_id;sensor_type;location;lat;lon;timestamp;P1;durP1;ratioP1;P2;durP2;ratioP2
43457;SDS011;29046;54.184;18.680;2023-11-25T00:00:04;1.42;;;0.85;;
43457;SDS011;29046;54.184;18.680;2023-11-25T00:02:53;4.50;;;1.25;;
43457;SDS011;29046;54.184;18.680;2023-11-25T00:05:21;4.15;;;1.40;;
43457;SDS011;29046;54.184;18.680;2023-11-25T00:07:48;3.17;;;1.20;;
43457;SDS011;29046;54.184;18.680;2023-11-25T00:10:16;2.08;;;1.27;;
43457;SDS011;29046;54.184;18.680;2023-11-25T00:12:45;1.90;;;1.48;;
43457;SDS011;29046;54.184;18.680;2023-11-25T00:15:13;0.88;;;0.77;;
43457;SDS011;29046;54.184;18.680;2023-11-25T00:17:41;1.30;;;0.40;;
43457;SDS011;29046;54.184;18.680;2023-11-25T00:20:09;3.65;;;1.27;;
43457;SDS011;29046;54.184;18.680;2023-11-25T00:22:37;9.30;;;2.30;;
43457;SDS011;29046;54.184;18.680;2023-11-25T00:25:04;0.70;;;0.60;;
43457;SDS011;29046;54.184;18.680;2023-11-25T00:27:33;2.75;;;1.60;;
43457;SDS011;29046;54.184;18.680;2023-11-25T00:30:00;2.13;;;1.08;;
43457;SDS011;29046;54.184;18.680;2023-11-25T00:32:29;1.42;;;0.82;;
43457;SDS011;29046;54.184;18.680;2023-11-25T00:34:57;1.65;;;0.68;;
43457;SDS011;29046;54.184;18.680;2023-11-25T00:37:25;1.23;;;0.50;;
43457;SDS011;29046;54.184;18.680;2023-11-25T00:39:53;2.88;;;1.30;;
43457;SDS011;29046;54.184;18.680;2023-11-25T00:42:20;3.00;;;1.35;;
43457;SDS011;29046;54.184;18.680;2023-11-25T00:44:48;1.20;;;0.73;;
43457;SDS011;29046;54.184;18.680;2023-11-25T00:47:16;12.18;;;1.95;;
43457;SDS011;29046;54.184;18.680;2023-11-25T00:49:45;3.17;;;1.40;;
43457;SDS011;29046;54.184;18.680;2023-11-25T00:52:15;8.32;;;2.03;;
43457;SDS011;29046;54.184;18.680;2023-11-25T00:54:44;1.35;;;0.68;;
43457;SDS011;29046;54.184;18.680;2023-11-25T00:57:12;1.52;;;0.77;;
43457;SDS011;29046;54.184;18.680;2023-11-25T00:59:40;1.45;;;0.95;;
43457;SDS011;29046;54.184;18.680;2023-11-25T01:02:08;1.63;;;0.77;;
43457;SDS011;29046;54.184;18.680;2023-11-25T01:04:38;2.55;;;1.10;;
43457;SDS011;29046;54.184;18.680;2023-11-25T01:07:06;1.98;;;0.80;;
43457;SDS011;29046;54.184;18.680;2023-11-25T01:09:34;2.92;;;1.15;;
43457;SDS011;29046;54.184;18.680;2023-11-25T01:12:02;4.85;;;1.27;;
43457;SDS011;29046;54.184;18.680;2023-11-25T01:14:31;7.20;;;0.90;;
43457;SDS011;29046;54.184;18.680;2023-11-25T01:16:59;1.95;;;0.70;;
43457;SDS011;29046;54.184;18.680;2023-11-25T01:19:27;0.98;;;0.70;;
43457;SDS011;29046;54.184;18.680;2023-11-25T01:21:55;4.30;;;0.98;;
43457;SDS011;29046;54.184;18.680;2023-11-25T01:24:22;1.67;;;1.00;;
43457;SDS011;29046;54.184;18.680;2023-11-25T01:26:50;2.38;;;1.25;;
43457;SDS011;29046;54.184;18.680;2023-11-25T01:29:18;1.48;;;0.77;;
43457;SDS011;29046;54.184;18.680;2023-11-25T01:31:46;0.90;;;0.73;;
43457;SDS011;29046;54.184;18.680;2023-11-25T01:34:13;2.67;;;1.33;;
43457;SDS011;29046;54.184;18.680;2023-11-25T01:36:41;0.25;;;0.25;;
43457;SDS011;29046;54.184;18.680;2023-11-25T01:39:09;0.28;;;0.28;;
43457;SDS011;29046;54.184;18.680;2023-11-25T01:41:36;2.05;;;0.52;;
43457;SDS011;29046;54.184;18.680;2023-11-25T01:44:04;0.95;;;0.60;;
43457;SDS011;29046;54.184;18.680;2023-11-25T01:46:34;2.00;;;0.50;;
43457;SDS011;29046;54.184;18.680;2023-11-25T01:49:06;1.20;;;0.40;;
43457;SDS011;29046;54.184;18.680;2023-11-25T01:51:40;0.52;;;0.30;;
43457;SDS011;29046;54.184;18.680;2023-11-25T01:54:12;0.20;;;0.20;;
43457;SDS011;29046;54.184;18.680;2023-11-25T01:56:44;3.10;;;1.13;;
43457;SDS011;29046;54.184;18.680;2023-11-25T01:59:14;1.05;;;0.50;;
43457;SDS011;29046;54.184;18.680;2023-11-25T02:01:43;1.63;;;0.50;;
43457;SDS011;29046;54.184;18.680;2023-11-25T02:04:11;2.75;;;0.20;;
43457;SDS011;29046;54.184;18.680;2023-11-25T02:06:40;2.03;;;1.02;;
43457;SDS011;29046;54.184;18.680;2023-11-25T02:09:08;0.80;;;0.47;;
43457;SDS011;29046;54.184;18.680;2023-11-25T02:11:54;2.08;;;0.88;;
43457;SDS011;29046;54.184;18.680;2023-11-25T02:14:22;1.77;;;0.70;;
43457;SDS011;29046;54.184;18.680;2023-11-25T02:16:52;0.30;;;0.30;;
43457;SDS011;29046;54.184;18.680;2023-11-25T02:19:20;0.45;;;0.45;;
43457;SDS011;29046;54.184;18.680;2023-11-25T02:21:48;3.08;;;1.00;;
43457;SDS011;29046;54.184;18.680;2023-11-25T02:24:16;1.48;;;0.55;;
43457;SDS011;29046;54.184;18.680;2023-11-25T02:26:44;2.85;;;0.40;;
43457;SDS011;29046;54.184;18.680;2023-11-25T02:29:12;0.30;;;0.10;;
43457;SDS011;29046;54.184;18.680;2023-11-25T02:31:40;0.10;;;0.10;;
43457;SDS011;29046;54.184;18.680;2023-11-25T02:34:09;0.95;;;0.30;;
43457;SDS011;29046;54.184;18.680;2023-11-25T02:36:37;0.95;;;0.43;;
43457;SDS011;29046;54.184;18.680;2023-11-25T02:39:05;0.82;;;0.60;;
43457;SDS011;29046;54.184;18.680;2023-11-25T02:41:33;0.85;;;0.47;;
43457;SDS011;29046;54.184;18.680;2023-11-25T02:44:02;0.20;;;0.20;;
43457;SDS011;29046;54.184;18.680;2023-11-25T02:46:30;0.40;;;0.28;;
43457;SDS011;29046;54.184;18.680;2023-11-25T02:48:57;0.10;;;0.10;;
43457;SDS011;29046;54.184;18.680;2023-11-25T02:51:26;0.10;;;0.10;;
43457;SDS011;29046;54.184;18.680;2023-11-25T02:53:54;2.65;;;0.45;;
43457;SDS011;29046;54.184;18.680;2023-11-25T02:56:22;1.10;;;0.20;;
43457;SDS011;29046;54.184;18.680;2023-11-25T02:58:50;2.40;;;1.08;;
43457;SDS011;29046;54.184;18.680;2023-11-25T03:01:18;0.38;;;0.30;;
43457;SDS011;29046;54.184;18.680;2023-11-25T03:03:50;0.20;;;0.20;;
43457;SDS011;29046;54.184;18.680;2023-11-25T03:06:20;7.13;;;0.65;;
43457;SDS011;29046;54.184;18.680;2023-11-25T03:08:49;0.68;;;0.40;;
43457;SDS011;29046;54.184;18.680;2023-11-25T03:11:20;0.13;;;0.10;;
43457;SDS011;29046;54.184;18.680;2023-11-25T03:13:47;0.32;;;0.10;;
43457;SDS011;29046;54.184;18.680;2023-11-25T03:16:15;4.13;;;0.32;;
43457;SDS011;29046;54.184;18.680;2023-11-25T03:18:43;2.80;;;0.65;;
43457;SDS011;29046;54.184;18.680;2023-11-25T03:21:11;0.10;;;0.10;;
43457;SDS011;29046;54.184;18.680;2023-11-25T03:23:38;1.13;;;0.55;;
43457;SDS011;29046;54.184;18.680;2023-11-25T03:26:06;0.15;;;0.15;;
43457;SDS011;29046;54.184;18.680;2023-11-25T03:28:39;0.22;;;0.13;;
43457;SDS011;29046;54.184;18.680;2023-11-25T03:31:07;1.25;;;0.17;;
43457;SDS011;29046;54.184;18.680;2023-11-25T03:33:34;0.45;;;0.38;;
43457;SDS011;29046;54.184;18.680;2023-11-25T03:36:03;0.65;;;0.28;;
43457;SDS011;29046;54.184;18.680;2023-11-25T03:38:30;1.80;;;0.65;;
43457;SDS011;29046;54.184;18.680;2023-11-25T03:40:58;2.13;;;0.70;;
43457;SDS011;29046;54.184;18.680;2023-11-25T03:43:25;1.50;;;0.80;;
43457;SDS011;29046;54.184;18.680;2023-11-25T03:45:53;0.57;;;0.57;;
43457;SDS011;29046;54.184;18.680;2023-11-25T03:48:21;0.30;;;0.28;;
43457;SDS011;29046;54.184;18.680;2023-11-25T03:50:49;1.83;;;0.60;;
43457;SDS011;29046;54.184;18.680;2023-11-25T03:53:16;2.60;;;0.70;;
43457;SDS011;29046;54.184;18.680;2023-11-25T03:55:45;0.65;;;0.30;;
43457;SDS011;29046;54.184;18.680;2023-11-25T03:58:12;4.25;;;0.60;;
43457;SDS011;29046;54.184;18.680;2023-11-25T04:00:40;0.47;;;0.47;;
43457;SDS011;29046;54.184;18.680;2023-11-25T04:03:07;0.10;;;0.10;;
43457;SDS011;29046;54.184;18.680;2023-11-25T04:05:35;0.20;;;0.20;;
43457;SDS011;29046;54.184;18.680;2023-11-25T04:08:03;0.10;;;0.10;;
43457;SDS011;29046;54.184;18.680;2023-11-25T04:10:31;0.85;;;0.38;;
43457;SDS011;29046;54.184;18.680;2023-11-25T04:12:58;1.08;;;0.38;;
43457;SDS011;29046;54.184;18.680;2023-11-25T04:15:26;3.45;;;0.60;;
43457;SDS011;29046;54.184;18.680;2023-11-25T04:17:54;6.13;;;0.35;;
43457;SDS011;29046;54.184;18.680;2023-11-25T04:20:21;1.13;;;0.50;;
43457;SDS011;29046;54.184;18.680;2023-11-25T04:22:57;2.90;;;0.50;;
43457;SDS011;29046;54.184;18.680;2023-11-25T04:25:32;3.20;;;0.95;;
43457;SDS011;29046;54.184;18.680;2023-11-25T04:28:00;0.40;;;0.32;;
43457;SDS011;29046;54.184;18.680;2023-11-25T04:30:28;5.85;;;2.20;;
43457;SDS011;29046;54.184;18.680;2023-11-25T04:32:56;8.18;;;2.20;;
43457;SDS011;29046;54.184;18.680;2023-11-25T04:35:24;1.33;;;0.50;;
43457;SDS011;29046;54.184;18.680;2023-11-25T04:37:52;0.30;;;0.30;;
43457;SDS011;29046;54.184;18.680;2023-11-25T04:40:20;2.40;;;0.30;;
43457;SDS011;29046;54.184;18.680;2023-11-25T04:42:47;0.38;;;0.35;;
43457;SDS011;29046;54.184;18.680;2023-11-25T04:45:15;1.10;;;0.47;;
43457;SDS011;29046;54.184;18.680;2023-11-25T04:47:44;3.33;;;0.77;;
43457;SDS011;29046;54.184;18.680;2023-11-25T04:50:13;3.97;;;1.25;;
43457;SDS011;29046;54.184;18.680;2023-11-25T04:52:40;0.65;;;0.52;;
43457;SDS011;29046;54.184;18.680;2023-11-25T04:55:09;5.55;;;0.52;;
43457;SDS011;29046;54.184;18.680;2023-11-25T04:57:39;2.20;;;0.43;;
43457;SDS011;29046;54.184;18.680;2023-11-25T05:00:07;0.43;;;0.30;;
43457;SDS011;29046;54.184;18.680;2023-11-25T05:02:38;0.88;;;0.43;;
43457;SDS011;29046;54.184;18.680;2023-11-25T05:05:07;1.35;;;0.22;;
43457;SDS011;29046;54.184;18.680;2023-11-25T05:07:35;1.20;;;0.50;;
43457;SDS011;29046;54.184;18.680;2023-11-25T05:10:03;0.57;;;0.40;;
43457;SDS011;29046;54.184;18.680;2023-11-25T05:12:32;6.95;;;1.23;;
43457;SDS011;29046;54.184;18.680;2023-11-25T05:15:00;0.75;;;0.63;;
43457;SDS011;29046;54.184;18.680;2023-11-25T05:17:27;1.58;;;0.85;;
43457;SDS011;29046;54.184;18.680;2023-11-25T05:19:55;1.33;;;0.50;;
43457;SDS011;29046;54.184;18.680;2023-11-25T05:22:23;2.35;;;0.80;;
43457;SDS011;29046;54.184;18.680;2023-11-25T05:24:55;1.08;;;0.50;;
43457;SDS011;29046;54.184;18.680;2023-11-25T05:27:22;4.60;;;1.33;;
43457;SDS011;29046;54.184;18.680;2023-11-25T05:29:50;0.65;;;0.32;;
43457;SDS011;29046;54.184;18.680;2023-11-25T05:32:18;5.38;;;1.10;;
43457;SDS011;29046;54.184;18.680;2023-11-25T05:34:46;0.85;;;0.60;;
43457;SDS011;29046;54.184;18.680;2023-11-25T05:37:13;2.40;;;0.65;;
43457;SDS011;29046;54.184;18.680;2023-11-25T05:39:41;6.93;;;1.20;;
43457;SDS011;29046;54.184;18.680;2023-11-25T05:42:09;2.53;;;0.63;;
43457;SDS011;29046;54.184;18.680;2023-11-25T05:44:37;0.98;;;0.45;;
43457;SDS011;29046;54.184;18.680;2023-11-25T05:47:06;3.92;;;0.82;;
43457;SDS011;29046;54.184;18.680;2023-11-25T05:49:34;2.65;;;1.10;;
43457;SDS011;29046;54.184;18.680;2023-11-25T05:52:01;1.23;;;0.55;;
43457;SDS011;29046;54.184;18.680;2023-11-25T05:54:30;0.82;;;0.47;;
43457;SDS011;29046;54.184;18.680;2023-11-25T05:56:57;1.55;;;0.73;;
43457;SDS011;29046;54.184;18.680;2023-11-25T05:59:25;5.20;;;0.35;;
43457;SDS011;29046;54.184;18.680;2023-11-25T06:01:52;4.28;;;0.57;;
43457;SDS011;29046;54.184;18.680;2023-11-25T06:04:20;1.38;;;1.23;;
43457;SDS011;29046;54.184;18.680;2023-11-25T06:06:48;1.10;;;0.43;;
43457;SDS011;29046;54.184;18.680;2023-11-25T06:09:16;0.20;;;0.10;;
43457;SDS011;29046;54.184;18.680;2023-11-25T06:11:44;0.52;;;0.30;;
43457;SDS011;29046;54.184;18.680;2023-11-25T06:14:12;0.80;;;0.30;;
43457;SDS011;29046;54.184;18.680;2023-11-25T06:16:41;0.20;;;0.20;;
43457;SDS011;29046;54.184;18.680;2023-11-25T06:19:09;0.38;;;0.30;;
43457;SDS011;29046;54.184;18.680;2023-11-25T06:21:38;0.77;;;0.40;;
43457;SDS011;29046;54.184;18.680;2023-11-25T06:24:09;1.45;;;0.57;;
43457;SDS011;29046;54.184;18.680;2023-11-25T06:26:36;1.13;;;0.45;;
43457;SDS011;29046;54.184;18.680;2023-11-25T06:29:04;0.20;;;0.20;;
43457;SDS011;29046;54.184;18.680;2023-11-25T06:31:32;0.20;;;0.20;;
43457;SDS011;29046;54.184;18.680;2023-11-25T06:34:02;1.30;;;0.40;;
43457;SDS011;29046;54.184;18.680;2023-11-25T06:36:30;3.15;;;0.40;;
43457;SDS011;29046;54.184;18.680;2023-11-25T06:38:58;1.20;;;0.40;;
43457;SDS011;29046;54.184;18.680;2023-11-25T06:41:26;0.75;;;0.20;;
43457;SDS011;29046;54.184;18.680;2023-11-25T06:43:54;0.47;;;0.35;;
43457;SDS011;29046;54.184;18.680;2023-11-25T06:46:22;0.40;;;0.40;;
43457;SDS011;29046;54.184;18.680;2023-11-25T06:48:50;1.30;;;1.02;;
43457;SDS011;29046;54.184;18.680;2023-11-25T06:51:19;0.70;;;0.52;;
43457;SDS011;29046;54.184;18.680;2023-11-25T06:53:46;1.08;;;1.00;;
43457;SDS011;29046;54.184;18.680;2023-11-25T06:56:14;1.98;;;0.93;;
43457;SDS011;29046;54.184;18.680;2023-11-25T06:58:45;1.10;;;0.90;;
43457;SDS011;29046;54.184;18.680;2023-11-25T07:01:19;1.30;;;0.35;;
43457;SDS011;29046;54.184;18.680;2023-11-25T07:03:47;0.30;;;0.20;;
43457;SDS011;29046;54.184;18.680;2023-11-25T07:06:15;4.85;;;0.63;;
43457;SDS011;29046;54.184;18.680;2023-11-25T07:08:45;3.05;;;0.88;;
43457;SDS011;29046;54.184;18.680;2023-11-25T07:11:12;3.15;;;1.33;;
43457;SDS011;29046;54.184;18.680;2023-11-25T07:13:41;2.55;;;1.38;;
43457;SDS011;29046;54.184;18.680;2023-11-25T07:16:09;1.20;;;0.75;;
43457;SDS011;29046;54.184;18.680;2023-11-25T07:18:39;1.45;;;0.82;;
43457;SDS011;29046;54.184;18.680;2023-11-25T07:21:11;1.17;;;1.08;;
43457;SDS011;29046;54.184;18.680;2023-11-25T07:23:39;1.15;;;1.02;;
43457;SDS011;29046;54.184;18.680;2023-11-25T07:26:06;2.03;;;0.60;;
43457;SDS011;29046;54.184;18.680;2023-11-25T07:28:34;0.32;;;0.30;;
43457;SDS011;29046;54.184;18.680;2023-11-25T07:31:02;0.50;;;0.50;;
43457;SDS011;29046;54.184;18.680;2023-11-25T07:33:31;1.83;;;1.58;;
43457;SDS011;29046;54.184;18.680;2023-11-25T07:35:58;0.60;;;0.50;;
43457;SDS011;29046;54.184;18.680;2023-11-25T07:38:27;0.73;;;0.50;;
43457;SDS011;29046;54.184;18.680;2023-11-25T07:40:55;3.53;;;0.75;;
43457;SDS011;29046;54.184;18.680;2023-11-25T07:43:23;0.88;;;0.60;;
43457;SDS011;29046;54.184;18.680;2023-11-25T07:45:51;5.30;;;1.92;;
43457;SDS011;29046;54.184;18.680;2023-11-25T07:48:19;1.77;;;0.60;;
43457;SDS011;29046;54.184;18.680;2023-11-25T07:50:47;2.63;;;1.38;;
43457;SDS011;29046;54.184;18.680;2023-11-25T07:53:17;0.90;;;0.75;;
43457;SDS011;29046;54.184;18.680;2023-11-25T07:55:49;1.00;;;0.67;;
43457;SDS011;29046;54.184;18.680;2023-11-25T07:58:18;5.85;;;2.40;;
43457;SDS011;29046;54.184;18.680;2023-11-25T08:00:46;1.52;;;1.15;;
43457;SDS011;29046;54.184;18.680;2023-11-25T08:03:13;5.45;;;2.22;;
43457;SDS011;29046;54.184;18.680;2023-11-25T08:05:41;0.95;;;0.82;;
43457;SDS011;29046;54.184;18.680;2023-11-25T08:08:09;2.88;;;1.35;;
43457;SDS011;29046;54.184;18.680;2023-11-25T08:10:37;4.68;;;1.77;;
43457;SDS011;29046;54.184;18.680;2023-11-25T08:13:05;5.82;;;2.08;;
43457;SDS011;29046;54.184;18.680;2023-11-25T08:15:33;2.65;;;1.17;;
43457;SDS011;29046;54.184;18.680;2023-11-25T08:18:01;0.57;;;0.32;;
43457;SDS011;29046;54.184;18.680;2023-11-25T08:20:30;2.08;;;0.73;;
43457;SDS011;29046;54.184;18.680;2023-11-25T08:23:00;0.57;;;0.50;;
43457;SDS011;29046;54.184;18.680;2023-11-25T08:25:27;3.42;;;2.13;;
43457;SDS011;29046;54.184;18.680;2023-11-25T08:27:55;1.23;;;0.50;;
43457;SDS011;29046;54.184;18.680;2023-11-25T08:30:24;1.52;;;0.82;;
43457;SDS011;29046;54.184;18.680;2023-11-25T08:32:52;5.88;;;2.40;;
43457;SDS011;29046;54.184;18.680;2023-11-25T08:35:19;23.90;;;7.22;;
43457;SDS011;29046;54.184;18.680;2023-11-25T08:37:47;25.75;;;9.23;;
43457;SDS011;29046;54.184;18.680;2023-11-25T08:40:15;11.35;;;4.43;;
43457;SDS011;29046;54.184;18.680;2023-11-25T08:42:44;26.95;;;8.32;;
43457;SDS011;29046;54.184;18.680;2023-11-25T08:45:12;7.05;;;3.75;;
43457;SDS011;29046;54.184;18.680;2023-11-25T08:47:41;12.25;;;4.53;;
43457;SDS011;29046;54.184;18.680;2023-11-25T08:50:09;4.75;;;1.65;;
43457;SDS011;29046;54.184;18.680;2023-11-25T08:52:42;11.57;;;3.30;;
43457;SDS011;29046;54.184;18.680;2023-11-25T08:55:11;22.55;;;5.43;;
43457;SDS011;29046;54.184;18.680;2023-11-25T08:57:44;8.90;;;3.13;;
43457;SDS011;29046;54.184;18.680;2023-11-25T09:00:12;4.90;;;3.75;;
43457;SDS011;29046;54.184;18.680;2023-11-25T09:02:48;11.48;;;2.17;;
43457;SDS011;29046;54.184;18.680;2023-11-25T09:05:19;7.28;;;2.50;;
43457;SDS011;29046;54.184;18.680;2023-11-25T09:07:52;8.68;;;3.45;;
43457;SDS011;29046;54.184;18.680;2023-11-25T09:10:22;5.80;;;2.05;;
43457;SDS011;29046;54.184;18.680;2023-11-25T09:12:52;3.47;;;2.53;;
43457;SDS011;29046;54.184;18.680;2023-11-25T09:15:20;2.97;;;1.65;;
43457;SDS011;29046;54.184;18.680;2023-11-25T09:17:49;7.85;;;2.90;;
43457;SDS011;29046;54.184;18.680;2023-11-25T09:20:18;5.05;;;2.33;;
43457;SDS011;29046;54.184;18.680;2023-11-25T09:22:48;9.10;;;3.30;;
43457;SDS011;29046;54.184;18.680;2023-11-25T09:25:16;4.25;;;2.03;;
43457;SDS011;29046;54.184;18.680;2023-11-25T09:27:44;5.90;;;3.00;;
43457;SDS011;29046;54.184;18.680;2023-11-25T09:30:12;8.15;;;2.25;;
43457;SDS011;29046;54.184;18.680;2023-11-25T09:32:41;11.02;;;2.30;;
43457;SDS011;29046;54.184;18.680;2023-11-25T09:35:09;5.60;;;2.05;;
43457;SDS011;29046;54.184;18.680;2023-11-25T09:37:40;7.78;;;3.00;;
43457;SDS011;29046;54.184;18.680;2023-11-25T09:40:09;3.20;;;1.52;;
43457;SDS011;29046;54.184;18.680;2023-11-25T09:42:45;6.80;;;3.10;;
43457;SDS011;29046;54.184;18.680;2023-11-25T09:45:14;8.20;;;3.17;;
43457;SDS011;29046;54.184;18.680;2023-11-25T09:47:42;2.85;;;1.23;;
43457;SDS011;29046;54.184;18.680;2023-11-25T09:50:11;10.68;;;2.95;;
43457;SDS011;29046;54.184;18.680;2023-11-25T09:52:52;7.13;;;2.88;;
43457;SDS011;29046;54.184;18.680;2023-11-25T09:55:21;11.60;;;4.72;;
43457;SDS011;29046;54.184;18.680;2023-11-25T09:57:58;14.18;;;5.03;;
43457;SDS011;29046;54.184;18.680;2023-11-25T10:00:26;8.90;;;3.70;;
43457;SDS011;29046;54.184;18.680;2023-11-25T10:02:56;14.65;;;4.35;;
43457;SDS011;29046;54.184;18.680;2023-11-25T10:05:25;19.35;;;5.55;;
43457;SDS011;29046;54.184;18.680;2023-11-25T10:07:53;5.65;;;2.47;;
43457;SDS011;29046;54.184;18.680;2023-11-25T10:10:21;6.63;;;2.90;;
43457;SDS011;29046;54.184;18.680;2023-11-25T10:12:51;10.07;;;3.38;;
43457;SDS011;29046;54.184;18.680;2023-11-25T10:15:19;6.40;;;2.42;;
43457;SDS011;29046;54.184;18.680;2023-11-25T10:17:49;6.65;;;2.55;;
43457;SDS011;29046;54.184;18.680;2023-11-25T10:20:16;5.88;;;3.33;;
43457;SDS011;29046;54.184;18.680;2023-11-25T10:22:49;4.80;;;2.17;;
43457;SDS011;29046;54.184;18.680;2023-11-25T10:25:20;7.32;;;2.03;;
43457;SDS011;29046;54.184;18.680;2023-11-25T10:27:51;9.90;;;3.30;;
43457;SDS011;29046;54.184;18.680;2023-11-25T10:30:21;9.45;;;3.78;;
43457;SDS011;29046;54.184;18.680;2023-11-25T10:32:50;3.33;;;2.05;;
43457;SDS011;29046;54.184;18.680;2023-11-25T10:35:21;11.88;;;2.63;;
43457;SDS011;29046;54.184;18.680;2023-11-25T10:37:51;5.15;;;2.10;;
43457;SDS011;29046;54.184;18.680;2023-11-25T10:40:19;5.45;;;2.70;;
43457;SDS011;29046;54.184;18.680;2023-11-25T10:42:49;7.13;;;3.92;;
43457;SDS011;29046;54.184;18.680;2023-11-25T10:45:17;5.85;;;2.30;;
43457;SDS011;29046;54.184;18.680;2023-11-25T10:47:46;2.50;;;1.52;;
43457;SDS011;29046;54.184;18.680;2023-11-25T10:50:14;8.35;;;3.53;;
43457;SDS011;29046;54.184;18.680;2023-11-25T10:52:42;5.68;;;2.00;;
43457;SDS011;29046;54.184;18.680;2023-11-25T10:55:11;7.28;;;2.60;;
43457;SDS011;29046;54.184;18.680;2023-11-25T10:57:40;5.85;;;3.60;;
43457;SDS011;29046;54.184;18.680;2023-11-25T11:00:08;8.98;;;3.53;;
43457;SDS011;29046;54.184;18.680;2023-11-25T11:02:42;6.55;;;3.25;;
43457;SDS011;29046;54.184;18.680;2023-11-25T11:05:12;7.85;;;3.28;;
43457;SDS011;29046;54.184;18.680;2023-11-25T11:07:46;17.23;;;6.30;;
43457;SDS011;29046;54.184;18.680;2023-11-25T11:13:14;4.45;;;2.35;;
43457;SDS011;29046;54.184;18.680;2023-11-25T11:15:44;9.30;;;3.58;;
43457;SDS011;29046;54.184;18.680;2023-11-25T11:18:23;4.22;;;2.08;;
43457;SDS011;29046;54.184;18.680;2023-11-25T11:20:51;4.18;;;1.48;;
43457;SDS011;29046;54.184;18.680;2023-11-25T11:23:19;4.18;;;1.40;;
43457;SDS011;29046;54.184;18.680;2023-11-25T11:25:51;7.40;;;2.25;;
43457;SDS011;29046;54.184;18.680;2023-11-25T11:28:23;3.20;;;1.65;;
43457;SDS011;29046;54.184;18.680;2023-11-25T11:33:22;3.50;;;1.48;;
43457;SDS011;29046;54.184;18.680;2023-11-25T11:35:50;5.40;;;2.22;;
43457;SDS011;29046;54.184;18.680;2023-11-25T11:38:29;32.05;;;5.30;;
43457;SDS011;29046;54.184;18.680;2023-11-25T11:40:59;15.50;;;5.35;;
43457;SDS011;29046;54.184;18.680;2023-11-25T11:43:27;14.68;;;3.15;;
43457;SDS011;29046;54.184;18.680;2023-11-25T11:45:55;14.07;;;4.78;;
43457;SDS011;29046;54.184;18.680;2023-11-25T11:48:24;5.07;;;2.15;;
43457;SDS011;29046;54.184;18.680;2023-11-25T11:50:52;17.00;;;7.00;;
43457;SDS011;29046;54.184;18.680;2023-11-25T11:53:21;19.55;;;7.95;;
43457;SDS011;29046;54.184;18.680;2023-11-25T11:55:54;5.25;;;3.00;;
43457;SDS011;29046;54.184;18.680;2023-11-25T11:58:23;10.00;;;3.47;;
43457;SDS011;29046;54.184;18.680;2023-11-25T12:01:25;11.70;;;3.45;;
43457;SDS011;29046;54.184;18.680;2023-11-25T12:03:46;18.77;;;5.78;;
43457;SDS011;29046;54.184;18.680;2023-11-25T12:06:14;15.77;;;7.00;;
43457;SDS011;29046;54.184;18.680;2023-11-25T12:08:43;7.63;;;3.38;;
43457;SDS011;29046;54.184;18.680;2023-11-25T12:11:11;24.35;;;9.10;;
43457;SDS011;29046;54.184;18.680;2023-11-25T12:13:39;32.28;;;11.07;;
43457;SDS011;29046;54.184;18.680;2023-11-25T12:16:08;4.95;;;2.55;;
43457;SDS011;29046;54.184;18.680;2023-11-25T12:18:36;12.13;;;3.67;;
43457;SDS011;29046;54.184;18.680;2023-11-25T12:21:04;6.20;;;3.15;;
43457;SDS011;29046;54.184;18.680;2023-11-25T12:23:32;12.52;;;4.40;;
43457;SDS011;29046;54.184;18.680;2023-11-25T12:26:20;5.57;;;2.83;;
43457;SDS011;29046;54.184;18.680;2023-11-25T12:28:49;10.38;;;2.72;;
43457;SDS011;29046;54.184;18.680;2023-11-25T12:31:16;7.47;;;3.10;;
43457;SDS011;29046;54.184;18.680;2023-11-25T12:33:44;8.93;;;2.13;;
43457;SDS011;29046;54.184;18.680;2023-11-25T12:36:11;3.88;;;2.00;;
43457;SDS011;29046;54.184;18.680;2023-11-25T12:38:39;3.15;;;1.52;;
43457;SDS011;29046;54.184;18.680;2023-11-25T12:41:08;1.48;;;0.95;;
43457;SDS011;29046;54.184;18.680;2023-11-25T12:46:26;9.95;;;1.30;;
43457;SDS011;29046;54.184;18.680;2023-11-25T12:48:54;3.13;;;2.22;;
43457;SDS011;29046;54.184;18.680;2023-11-25T12:51:24;8.18;;;2.90;;
43457;SDS011;29046;54.184;18.680;2023-11-25T12:53:53;10.73;;;4.22;;
43457;SDS011;29046;54.184;18.680;2023-11-25T12:56:23;3.50;;;1.92;;
43457;SDS011;29046;54.184;18.680;2023-11-25T12:58:51;4.75;;;1.30;;
43457;SDS011;29046;54.184;18.680;2023-11-25T13:01:22;6.35;;;2.70;;
43457;SDS011;29046;54.184;18.680;2023-11-25T13:03:52;5.32;;;2.20;;
43457;SDS011;29046;54.184;18.680;2023-11-25T13:06:19;6.15;;;2.33;;
43457;SDS011;29046;54.184;18.680;2023-11-25T13:08:47;6.97;;;1.33;;
43457;SDS011;29046;54.184;18.680;2023-11-25T13:11:14;4.43;;;1.88;;
43457;SDS011;29046;54.184;18.680;2023-11-25T13:13:45;3.33;;;1.58;;
43457;SDS011;29046;54.184;18.680;2023-11-25T13:16:12;7.20;;;2.53;;
43457;SDS011;29046;54.184;18.680;2023-11-25T13:18:47;8.65;;;2.47;;
43457;SDS011;29046;54.184;18.680;2023-11-25T13:21:14;8.18;;;2.13;;
43457;SDS011;29046;54.184;18.680;2023-11-25T13:23:42;3.38;;;1.70;;
43457;SDS011;29046;54.184;18.680;2023-11-25T13:26:10;1.70;;;1.00;;
43457;SDS011;29046;54.184;18.680;2023-11-25T13:28:39;4.07;;;2.63;;
43457;SDS011;29046;54.184;18.680;2023-11-25T13:31:06;4.70;;;1.48;;
43457;SDS011;29046;54.184;18.680;2023-11-25T13:33:34;11.45;;;2.85;;
43457;SDS011;29046;54.184;18.680;2023-11-25T13:36:02;5.88;;;2.78;;
43457;SDS011;29046;54.184;18.680;2023-11-25T13:38:29;3.78;;;1.35;;
43457;SDS011;29046;54.184;18.680;2023-11-25T13:40:57;4.28;;;1.48;;
43457;SDS011;29046;54.184;18.680;2023-11-25T13:43:25;8.15;;;2.53;;
43457;SDS011;29046;54.184;18.680;2023-11-25T13:45:52;1.83;;;0.82;;
43457;SDS011;29046;54.184;18.680;2023-11-25T13:48:20;5.35;;;2.60;;
43457;SDS011;29046;54.184;18.680;2023-11-25T13:50:48;6.88;;;2.58;;
43457;SDS011;29046;54.184;18.680;2023-11-25T13:53:16;3.83;;;1.92;;
43457;SDS011;29046;54.184;18.680;2023-11-25T13:55:47;1.13;;;1.00;;
43457;SDS011;29046;54.184;18.680;2023-11-25T13:58:15;6.35;;;3.38;;
43457;SDS011;29046;54.184;18.680;2023-11-25T14:00:43;7.18;;;3.05;;
43457;SDS011;29046;54.184;18.680;2023-11-25T14:03:11;2.58;;;1.77;;
43457;SDS011;29046;54.184;18.680;2023-11-25T14:05:41;5.07;;;1.83;;
43457;SDS011;29046;54.184;18.680;2023-11-25T14:08:10;13.70;;;5.43;;
43457;SDS011;29046;54.184;18.680;2023-11-25T14:10:45;18.08;;;5.25;;
43457;SDS011;29046;54.184;18.680;2023-11-25T14:13:13;26.42;;;10.35;;
43457;SDS011;29046;54.184;18.680;2023-11-25T14:15:42;6.32;;;2.97;;
43457;SDS011;29046;54.184;18.680;2023-11-25T14:18:10;10.25;;;3.03;;
43457;SDS011;29046;54.184;18.680;2023-11-25T14:20:37;4.97;;;2.20;;
43457;SDS011;29046;54.184;18.680;2023-11-25T14:23:05;5.75;;;2.65;;
43457;SDS011;29046;54.184;18.680;2023-11-25T14:25:33;5.93;;;2.45;;
43457;SDS011;29046;54.184;18.680;2023-11-25T14:28:02;9.40;;;2.75;;
43457;SDS011;29046;54.184;18.680;2023-11-25T14:30:29;5.38;;;2.13;;
43457;SDS011;29046;54.184;18.680;2023-11-25T14:33:00;4.80;;;2.97;;
43457;SDS011;29046;54.184;18.680;2023-11-25T14:35:31;12.77;;;3.25;;
43457;SDS011;29046;54.184;18.680;2023-11-25T14:37:59;8.27;;;3.05;;
43457;SDS011;29046;54.184;18.680;2023-11-25T14:40:31;7.63;;;3.33;;
43457;SDS011;29046;54.184;18.680;2023-11-25T14:43:06;4.88;;;3.50;;
43457;SDS011;29046;54.184;18.680;2023-11-25T14:45:34;11.65;;;4.45;;
43457;SDS011;29046;54.184;18.680;2023-11-25T14:48:02;8.50;;;2.97;;
43457;SDS011;29046;54.184;18.680;2023-11-25T14:50:31;10.15;;;5.28;;